Time;durP1;ratioP1;P1;durP2;ratioP2;P2;SDS_P1;SDS_P2;PMS_P1;PMS_P2;Temp;Humidity;BMP_temperature;BMP_pressure;BME280_temperature;BME280_humidity;BME280_pressure;Samples;Min_cycle;Max_cycle;Signal;HPM_P1;HPM_P2
2021/06/21 00:02:26;;;;;;;;;;;;;;;;;;5132802;27;19945;-72
2021/06/21 00:04:53;;;;;;;;;;;;;;;;;;5132965;28;19923;-72
2021/06/21 00:07:20;;;;;;;;;;;;;;;;;;5126332;28;19932;-72
2021/06/21 00:09:47;;;;;;;;;;;;;;;;;;5113607;28;19923;-70
2021/06/21 00:12:14;;;;;;;;;;;;;;;;;;5113282;28;19931;-70
2021/06/21 00:14:41;;;;;;;;;;;;;;;;;;5113167;28;20368;-73
2021/06/21 00:17:08;;;;;;;;;;;;;;;;;;5113825;28;20055;-73
2021/06/21 00:19:35;;;;;;;;;;;;;;;;;;5113232;28;19924;-72
2021/06/21 00:22:02;;;;;;;;;;;;;;;;;;5113598;28;19970;-72
2021/06/21 00:24:29;;;;;;;;;;;;;;;;;;5112250;28;19930;-74
2021/06/21 00:26:56;;;;;;;;;;;;;;;;;;5113124;28;20010;-73
2021/06/21 00:29:23;;;;;;;;;;;;;;;;;;5113107;28;19924;-73
2021/06/21 00:31:50;;;;;;;;;;;;;;;;;;5112983;28;20355;-73
2021/06/21 00:34:17;;;;;;;;;;;;;;;;;;5112504;28;19923;-73
2021/06/21 00:36:44;;;;;;;;;;;;;;;;;;5112299;28;19930;-73
2021/06/21 00:39:11;;;;;;;;;;;;;;;;;;5112071;28;19924;-72
2021/06/21 00:41:38;;;;;;;;;;;;;;;;;;5111787;28;19950;-72
2021/06/21 00:44:06;;;;;;;;;;;;;;;;;;5111667;28;19930;-72
2021/06/21 00:46:33;;;;;;;;;;;;;;;;;;5111896;28;19927;-72
2021/06/21 00:49:00;;;;;;;;;;;;;;;;;;5112249;28;19936;-72
2021/06/21 00:51:27;;;;;;;;;;;;;;;;;;5111774;28;20318;-72
2021/06/21 00:53:54;;;;;;;;;;;;;;;;;;5111616;28;19924;-72
2021/06/21 00:56:21;;;;;;;;;;;;;;;;;;5111472;28;20035;-73
2021/06/21 00:58:49;;;;;;;;;;;;;;;;;;5111622;28;20017;-73
2021/06/21 01:01:16;;;;;;;;;;;;;;;;;;5111463;28;19931;-72
2021/06/21 01:03:43;;;;;;;;;;;;;;;;;;5111425;28;19924;-73
2021/06/21 01:06:10;;;;;;;;;;;;;;;;;;5111601;28;20437;-73
2021/06/21 01:08:37;;;;;;;;;;;;;;;;;;5129323;28;19968;-72
2021/06/21 01:11:04;;;;;;;;;;;;;;;;;;5133539;27;19924;-72
2021/06/21 01:13:31;;;;;;;;;;;;;;;;;;5136073;27;19929;-72
2021/06/21 01:15:58;;;;;;;;;;;;;;;;;;5135738;27;19927;-72
2021/06/21 01:18:25;;;;;;;;;;;;;;;;;;5135966;27;20302;-72
2021/06/21 01:20:52;;;;;;;;;;;;;;;;;;5135246;27;19931;-73
2021/06/21 01:23:19;;;;;;;;;;;;;;;;;;5135432;27;20002;-72
2021/06/21 01:25:46;;;;;;;;;;;;;;;;;;5135129;27;20390;-73
2021/06/21 01:28:13;;;;;;;;;;;;;;;;;;5135688;27;19923;-72
2021/06/21 01:30:40;;;;;;;;;;;;;;;;;;5135259;27;20348;-73
2021/06/21 01:33:07;;;;;;;;;;;;;;;;;;5135066;27;19963;-72
2021/06/21 01:35:34;;;;;;;;;;;;;;;;;;5135550;27;20407;-73
2021/06/21 01:38:01;;;;;;;;;;;;;;;;;;5135362;27;19930;-73
2021/06/21 01:40:28;;;;;;;;;;;;;;;;;;5135004;27;20258;-73
2021/06/21 01:42:55;;;;;;;;;;;;;;;;;;5134950;27;19924;-73
2021/06/21 01:45:22;;;;;;;;;;;;;;;;;;5135319;27;19975;-73
2021/06/21 01:47:49;;;;;;;;;;;;;;;;;;5135073;27;19930;-73
2021/06/21 01:50:16;;;;;;;;;;;;;;;;;;5134757;27;19923;-73
2021/06/21 01:52:43;;;;;;;;;;;;;;;;;;5134851;27;19958;-73
2021/06/21 01:55:10;;;;;;;;;;;;;;;;;;5135280;27;19934;-73
2021/06/21 01:57:37;;;;;;;;;;;;;;;;;;5134962;27;19930;-72
2021/06/21 02:00:04;;;;;;;;;;;;;;;;;;5134726;27;19927;-73
2021/06/21 02:02:31;;;;;;;;;;;;;;;;;;5134975;27;20515;-72
2021/06/21 02:04:58;;;;;;;;;;;;;;;;;;5134682;27;19927;-72
2021/06/21 02:07:25;;;;;;;;;;;;;;;;;;5126874;27;20514;-72
2021/06/21 02:09:52;;;;;;;;;;;;;;;;;;5113985;28;20306;-71
2021/06/21 02:12:19;;;;;;;;;;;;;;;;;;5114021;28;19930;-72
2021/06/21 02:14:48;;;;;;;;;;;;;;;;;;5114053;28;19974;-71
2021/06/21 02:17:15;;;;;;;;;;;;;;;;;;5119089;28;19969;-73
2021/06/21 02:19:42;;;;;;;;;;;;;;;;;;5117625;28;19975;-73
2021/06/21 02:22:09;;;;;;;;;;;;;;;;;;5116280;28;20010;-73
2021/06/21 02:24:36;;;;;;;;;;;;;;;;;;5115530;28;19970;-73
2021/06/21 02:27:03;;;;;;;;;;;;;;;;;;5115558;28;19924;-73
2021/06/21 02:29:30;;;;;;;;;;;;;;;;;;5115745;28;20007;-73
2021/06/21 02:31:57;;;;;;;;;;;;;;;;;;5115266;28;20336;-73
2021/06/21 02:34:24;;;;;;;;;;;;;;;;;;5114998;28;19968;-73
2021/06/21 02:36:51;;;;;;;;;;;;;;;;;;5115062;28;20405;-73
2021/06/21 02:39:18;;;;;;;;;;;;;;;;;;5114591;28;19934;-73
2021/06/21 02:41:45;;;;;;;;;;;;;;;;;;5114167;28;20018;-73
2021/06/21 02:44:12;;;;;;;;;;;;;;;;;;5114547;28;20064;-73
2021/06/21 02:46:39;;;;;;;;;;;;;;;;;;5114431;28;19931;-73
2021/06/21 02:49:06;;;;;;;;;;;;;;;;;;5113474;28;20298;-73
2021/06/21 02:51:33;;;;;;;;;;;;;;;;;;5113666;28;20005;-73
2021/06/21 02:54:00;;;;;;;;;;;;;;;;;;5113544;28;20351;-72
2021/06/21 02:56:27;;;;;;;;;;;;;;;;;;5113450;28;19935;-73
2021/06/21 02:58:54;;;;;;;;;;;;;;;;;;5113406;28;20022;-73
2021/06/21 03:01:21;;;;;;;;;;;;;;;;;;5112646;28;20042;-73
2021/06/21 03:03:48;;;;;;;;;;;;;;;;;;5113438;28;20512;-73
2021/06/21 03:06:15;;;;;;;;;;;;;;;;;;5113306;28;19930;-72
2021/06/21 03:08:42;;;;;;;;;;;;;;;;;;5131927;27;20445;-72
2021/06/21 03:11:09;;;;;;;;;;;;;;;;;;5133761;27;19930;-72
2021/06/21 03:13:36;;;;;;;;;;;;;;;;;;5133398;27;20047;-72
2021/06/21 03:16:03;;;;;;;;;;;;;;;;;;5133443;27;20203;-73
2021/06/21 03:18:30;;;;;;;;;;;;;;;;;;5133136;27;20004;-72
2021/06/21 03:20:57;;;;;;;;;;;;;;;;;;5133137;27;19924;-72
2021/06/21 03:23:24;;;;;;;;;;;;;;;;;;5133996;27;20301;-72
2021/06/21 03:25:51;;;;;;;;;;;;;;;;;;5133366;27;19929;-72
2021/06/21 03:28:18;;;;;;;;;;;;;;;;;;5133068;27;20401;-72
2021/06/21 03:30:45;;;;;;;;;;;;;;;;;;5132807;27;19956;-72
2021/06/21 03:33:12;;;;;;;;;;;;;;;;;;5132676;27;20378;-72
2021/06/21 03:35:39;;;;;;;;;;;;;;;;;;5133418;27;19923;-72
2021/06/21 03:38:06;;;;;;;;;;;;;;;;;;5133106;27;19924;-71
2021/06/21 03:40:33;;;;;;;;;;;;;;;;;;5132605;27;19992;-72
2021/06/21 03:43:03;;;;;;;;;;;;;;;;;;5132706;27;19931;-71
2021/06/21 03:45:30;;;;;;;;;;;;;;;;;;5133153;27;20290;-72
2021/06/21 03:47:57;;;;;;;;;;;;;;;;;;5133126;27;19931;-71
2021/06/21 03:50:24;;;;;;;;;;;;;;;;;;5132936;27;20026;-73
2021/06/21 03:52:50;;;;;;;;;;;;;;;;;;5142974;27;19923;-71
2021/06/21 03:55:17;;;;;;;;;;;;;;;;;;5133049;27;20125;-72
2021/06/21 03:57:44;;;;;;;;;;;;;;;;;;5132227;27;19924;-72
2021/06/21 04:00:11;;;;;;;;;;;;;;;;;;5132807;27;19946;-72
2021/06/21 04:02:38;;;;;;;;;;;;;;;;;;5132688;27;19966;-72
2021/06/21 04:05:05;;;;;;;;;;;;;;;;;;5132887;27;20018;-72
2021/06/21 04:07:32;;;;;;;;;;;;;;;;;;5124163;28;19930;-72
2021/06/21 04:10:00;;;;;;;;;;;;;;;;;;5112393;28;20022;-72
2021/06/21 04:12:27;;;;;;;;;;;;;;;;;;5111766;28;19931;-73
2021/06/21 04:14:54;;;;;;;;;;;;;;;;;;5112318;28;19923;-72
2021/06/21 04:17:21;;;;;;;;;;;;;;;;;;5112103;28;19930;-72
2021/06/21 04:19:47;;;;;;;;;;;;;;;;;;5111866;28;20379;-72
2021/06/21 04:22:14;;;;;;;;;;;;;;;;;;5112235;28;19923;-72
2021/06/21 04:24:41;;;;;;;;;;;;;;;;;;5111926;28;19930;-72
2021/06/21 04:27:08;;;;;;;;;;;;;;;;;;5112047;28;20294;-72
2021/06/21 04:29:35;;;;;;;;;;;;;;;;;;5111589;28;19986;-72
2021/06/21 04:32:02;;;;;;;;;;;;;;;;;;5112236;28;19946;-72
2021/06/21 04:34:29;;;;;;;;;;;;;;;;;;5112256;28;19924;-72
2021/06/21 04:36:56;;;;;;;;;;;;;;;;;;5111982;28;19924;-72
2021/06/21 04:39:23;;;;;;;;;;;;;;;;;;5111802;28;19923;-72
2021/06/21 04:41:50;;;;;;;;;;;;;;;;;;5130487;28;19923;-71
2021/06/21 04:44:17;;;;;;;;;;;;;;;;;;5129934;28;19987;-73
2021/06/21 04:46:44;;;;;;;;;;;;;;;;;;5114997;28;20332;-72
2021/06/21 04:49:13;;;;;;;;;;;;;;;;;;5115492;28;19930;-72
2021/06/21 04:51:40;;;;;;;;;;;;;;;;;;5115774;28;19927;-72
2021/06/21 04:54:09;;;;;;;;;;;;;;;;;;5116111;28;19981;-73
2021/06/21 04:56:37;;;;;;;;;;;;;;;;;;5115779;28;19923;-73
2021/06/21 04:59:04;;;;;;;;;;;;;;;;;;5116267;28;19924;-72
2021/06/21 05:01:31;;;;;;;;;;;;;;;;;;5116889;28;19924;-73
2021/06/21 05:04:00;;;;;;;;;;;;;;;;;;5117256;28;19946;-72
2021/06/21 05:06:27;;;;;;;;;;;;;;;;;;5116880;28;20030;-73
2021/06/21 05:08:54;;;;;;;;;;;;;;;;;;5135631;27;20025;-73
2021/06/21 05:11:21;;;;;;;;;;;;;;;;;;5136408;27;19930;-74
2021/06/21 05:13:48;;;;;;;;;;;;;;;;;;5137038;27;20375;-73
2021/06/21 05:16:16;;;;;;;;;;;;;;;;;;5137529;27;19929;-74
2021/06/21 05:18:43;;;;;;;;;;;;;;;;;;5136648;27;19930;-71
2021/06/21 05:21:10;;;;;;;;;;;;;;;;;;5136206;27;19974;-71
2021/06/21 05:23:37;;;;;;;;;;;;;;;;;;5136065;27;20037;-72
2021/06/21 05:26:04;;;;;;;;;;;;;;;;;;5137380;27;19923;-73
2021/06/21 05:28:31;;;;;;;;;;;;;;;;;;5136721;27;19924;-74
2021/06/21 05:30:58;;;;;;;;;;;;;;;;;;5138291;27;19923;-72
2021/06/21 05:33:25;;;;;;;;;;;;;;;;;;5156716;27;19979;-71
2021/06/21 05:35:52;;;;;;;;;;;;;;;;;;5147226;27;19930;-73
2021/06/21 05:38:19;;;;;;;;;;;;;;;;;;5135737;27;19933;-74
2021/06/21 05:40:46;;;;;;;;;;;;;;;;;;5135562;27;19923;-72
2021/06/21 05:43:13;;;;;;;;;;;;;;;;;;5135286;27;19928;-72
2021/06/21 05:45:40;;;;;;;;;;;;;;;;;;5135144;27;19929;-72
2021/06/21 05:48:06;;;;;;;;;;;;;;;;;;5134621;27;19930;-71
2021/06/21 05:50:33;;;;;;;;;;;;;;;;;;5134636;27;19930;-71
2021/06/21 05:53:00;;;;;;;;;;;;;;;;;;5135068;27;20279;-74
2021/06/21 05:55:27;;;;;;;;;;;;;;;;;;5134731;27;19924;-72
2021/06/21 05:57:54;;;;;;;;;;;;;;;;;;5134165;27;19924;-72
2021/06/21 06:00:21;;;;;;;;;;;;;;;;;;5134359;27;20406;-71
2021/06/21 06:02:48;;;;;;;;;;;;;;;;;;5134374;27;19963;-73
2021/06/21 06:05:15;;;;;;;;;;;;;;;;;;5135050;27;19924;-72
2021/06/21 06:07:42;;;;;;;;;;;;;;;;;;5124944;27;19930;-73
2021/06/21 06:10:09;;;;;;;;;;;;;;;;;;5113818;28;19935;-72
2021/06/21 06:12:36;;;;;;;;;;;;;;;;;;5114134;28;19924;-73
2021/06/21 06:15:03;;;;;;;;;;;;;;;;;;5114010;28;19924;-73
2021/06/21 06:17:30;;;;;;;;;;;;;;;;;;5113771;28;20427;-73
2021/06/21 06:19:58;;;;;;;;;;;;;;;;;;5114445;28;20026;-73
2021/06/21 06:22:25;;;;;;;;;;;;;;;;;;5113865;28;19938;-72
2021/06/21 06:24:52;;;;;;;;;;;;;;;;;;5114537;28;19971;-72
2021/06/21 06:27:19;;;;;;;;;;;;;;;;;;5113992;28;20403;-72
2021/06/21 06:29:46;;;;;;;;;;;;;;;;;;5113643;28;19946;-72
2021/06/21 06:32:13;;;;;;;;;;;;;;;;;;5114210;28;19977;-72
2021/06/21 06:34:40;;;;;;;;;;;;;;;;;;5114319;28;19930;-72
2021/06/21 06:37:07;;;;;;;;;;;;;;;;;;5114253;28;19938;-72
2021/06/21 06:39:34;;;;;;;;;;;;;;;;;;5113811;28;19924;-72
2021/06/21 06:42:01;;;;;;;;;;;;;;;;;;5114038;28;19923;-72
2021/06/21 06:44:28;;;;;;;;;;;;;;;;;;5113758;28;20006;-72
2021/06/21 06:46:55;;;;;;;;;;;;;;;;;;5113589;28;19930;-72
2021/06/21 06:49:22;;;;;;;;;;;;;;;;;;5113382;28;20295;-72
2021/06/21 06:51:51;;;;;;;;;;;;;;;;;;5113350;28;20482;-72
2021/06/21 06:54:27;;;;;;;;;;;;;;;;;;5113604;28;19924;-72
2021/06/21 06:57:00;;;;;;;;;;;;;;;;;;5113211;28;19928;-72
2021/06/21 06:59:27;;;;;;;;;;;;;;;;;;5113153;28;19927;-72
2021/06/21 07:01:54;;;;;;;;;;;;;;;;;;5113378;28;19923;-72
2021/06/21 07:04:22;;;;;;;;;;;;;;;;;;5112885;28;20383;-72
2021/06/21 07:06:49;;;;;;;;;;;;;;;;;;5115282;27;20008;-72
2021/06/21 07:09:17;;;;;;;;;;;;;;;;;;5132452;27;20452;-72
2021/06/21 07:11:45;;;;;;;;;;;;;;;;;;5133725;27;19923;-72
2021/06/21 07:14:12;;;;;;;;;;;;;;;;;;5139012;27;19924;-72
2021/06/21 07:16:39;;;;;;;;;;;;;;;;;;5133168;27;19933;-72
2021/06/21 07:19:06;;;;;;;;;;;;;;;;;;5133218;27;20401;-72
2021/06/21 07:21:33;;;;;;;;;;;;;;;;;;5144596;27;19923;-72
2021/06/21 07:24:00;;;;;;;;;;;;;;;;;;5132981;27;19946;-72
2021/06/21 07:26:27;;;;;;;;;;;;;;;;;;5133722;27;19930;-72
2021/06/21 07:28:54;;;;;;;;;;;;;;;;;;5133145;27;19930;-71
2021/06/21 07:31:21;;;;;;;;;;;;;;;;;;5133014;27;19923;-71
2021/06/21 07:33:48;;;;;;;;;;;;;;;;;;5133238;27;20018;-71
2021/06/21 07:36:15;;;;;;;;;;;;;;;;;;5133277;27;19923;-73
2021/06/21 07:38:42;;;;;;;;;;;;;;;;;;5133081;27;19923;-72
2021/06/21 07:41:09;;;;;;;;;;;;;;;;;;5132728;27;20389;-72
2021/06/21 07:43:36;;;;;;;;;;;;;;;;;;5133054;27;20387;-72
2021/06/21 07:46:03;;;;;;;;;;;;;;;;;;5133004;27;19930;-71
2021/06/21 07:48:30;;;;;;;;;;;;;;;;;;5133128;27;19930;-71
2021/06/21 07:50:57;;;;;;;;;;;;;;;;;;5132531;27;19924;-72
2021/06/21 07:53:24;;;;;;;;;;;;;;;;;;5132865;27;20375;-72
2021/06/21 07:55:51;;;;;;;;;;;;;;;;;;5133139;27;20133;-72
2021/06/21 07:58:18;;;;;;;;;;;;;;;;;;5133157;27;19924;-71
2021/06/21 08:00:46;;;;;;;;;;;;;;;;;;5132446;27;20401;-71
2021/06/21 08:03:13;;;;;;;;;;;;;;;;;;5132600;27;19930;-71
2021/06/21 08:05:42;;;;;;;;;;;;;;;;;;5132759;27;19924;-73
2021/06/21 08:08:09;;;;;;;;;;;;;;;;;;5132763;28;19934;-72
2021/06/21 08:10:36;;;;;;;;;;;;;;;;;;5132792;28;19923;-72
2021/06/21 08:13:03;;;;;;;;;;;;;;;;;;5132623;28;19923;-72
2021/06/21 08:15:30;;;;;;;;;;;;;;;;;;5132855;28;20401;-72
2021/06/21 08:17:57;;;;;;;;;;;;;;;;;;5132989;28;19923;-72
2021/06/21 08:20:24;;;;;;;;;;;;;;;;;;5135007;27;19923;-72
2021/06/21 08:22:51;;;;;;;;;;;;;;;;;;5137004;27;19923;-72
2021/06/21 08:25:18;;;;;;;;;;;;;;;;;;5136546;27;19923;-74
2021/06/21 08:27:45;;;;;;;;;;;;;;;;;;5137000;27;19973;-72
2021/06/21 08:30:12;;;;;;;;;;;;;;;;;;5136293;27;20022;-72
2021/06/21 08:32:40;;;;;;;;;;;;;;;;;;5136343;27;19924;-71
2021/06/21 08:35:07;;;;;;;;;;;;;;;;;;5136669;27;20063;-72
2021/06/21 08:37:34;;;;;;;;;;;;;;;;;;5136480;27;19924;-72
2021/06/21 08:40:01;;;;;;;;;;;;;;;;;;5136532;27;20309;-71
2021/06/21 08:42:28;;;;;;;;;;;;;;;;;;5136136;27;19924;-72
2021/06/21 08:44:57;;;;;;;;;;;;;;;;;;5136606;27;19928;-71
2021/06/21 08:47:24;;;;;;;;;;;;;;;;;;5136045;27;19924;-72
2021/06/21 08:49:51;;;;;;;;;;;;;;;;;;5136365;27;19930;-72
2021/06/21 08:52:18;;;;;;;;;;;;;;;;;;5135914;27;19976;-73
2021/06/21 08:54:46;;;;;;;;;;;;;;;;;;5136260;27;19923;-72
2021/06/21 08:57:13;;;;;;;;;;;;;;;;;;5136107;27;19923;-73
2021/06/21 08:59:40;;;;;;;;;;;;;;;;;;5135735;27;20307;-72
2021/06/21 09:02:07;;;;;;;;;;;;;;;;;;5135981;27;19935;-72
2021/06/21 09:04:34;;;;;;;;;;;;;;;;;;5135964;27;19923;-72
2021/06/21 09:07:01;;;;;;;;;;;;;;;;;;5131703;27;19930;-72
2021/06/21 09:09:28;;;;;;;;;;;;;;;;;;5115312;28;19930;-72
2021/06/21 09:11:55;;;;;;;;;;;;;;;;;;5115471;28;19923;-72
2021/06/21 09:14:22;;;;;;;;;;;;;;;;;;5115205;28;19923;-73
2021/06/21 09:16:49;;;;;;;;;;;;;;;;;;5115841;28;19924;-71
2021/06/21 09:19:16;;;;;;;;;;;;;;;;;;5115371;28;20007;-71
2021/06/21 09:21:43;;;;;;;;;;;;;;;;;;5114991;28;19954;-71
2021/06/21 09:24:10;;;;;;;;;;;;;;;;;;5129971;22;19938;-65
2021/06/21 09:26:37;;;;;;;;;;;;;;;;;;5115264;28;19930;-65
2021/06/21 09:29:05;;;;;;;;;;;;;;;;;;5114705;28;19923;-62
2021/06/21 09:31:32;;;;;;;;;;;;;;;;;;5113969;28;19923;-65
2021/06/21 09:33:59;;;;;;;;;;;;;;;;;;5114811;28;19932;-65
2021/06/21 09:36:26;;;;;;;;;;;;;;;;;;5114811;28;19924;-65
2021/06/21 09:38:53;;;;;;;;;;;;;;;;;;5115050;28;19969;-64
2021/06/21 09:41:20;;;;;;;;;;;;;;;;;;5114092;28;19981;-64
2021/06/21 09:43:47;;;;;;;;;;;;;;;;;;5114398;28;19934;-64
2021/06/21 09:46:14;;;;;;;;;;;;;;;;;;5114558;28;19923;-64
2021/06/21 09:48:41;;;;;;;;;;;;;;;;;;5114590;28;19924;-64
2021/06/21 09:51:08;;;;;;;;;;;;;;;;;;5114353;28;20405;-64
2021/06/21 09:53:35;;;;;;;;;;;;;;;;;;5114089;28;19930;-64
2021/06/21 09:56:02;;;;;;;;;;;;;;;;;;5114361;28;19924;-64
2021/06/21 09:58:29;;;;;;;;;;;;;;;;;;5114677;28;19931;-64
2021/06/21 10:00:56;;;;;;;;;;;;;;;;;;5113957;28;19924;-64
2021/06/21 10:03:25;;;;;;;;;;;;;;;;;;5114322;28;19924;-64
2021/06/21 10:05:51;;;;;;;;;;;;;;;;;;5114399;28;19930;-64
2021/06/21 10:08:18;;;;;;;;;;;;;;;;;;5099987;28;19924;-64
2021/06/21 10:10:45;;;;;;;;;;;;;;;;;;5093499;28;20383;-64
2021/06/21 10:13:13;;;;;;;;;;;;;;;;;;5094096;28;20273;-64
2021/06/21 10:15:40;;;;;;;;;;;;;;;;;;5093721;28;19928;-64
2021/06/21 10:18:07;;;;;;;;;;;;;;;;;;5093883;28;19924;-64
2021/06/21 10:20:34;;;;;;;;;;;;;;;;;;5093701;28;20010;-64
2021/06/21 10:23:02;;;;;;;;;;;;;;;;;;5093092;28;19924;-64
2021/06/21 10:25:29;;;;;;;;;;;;;;;;;;5107600;28;19939;-64
2021/06/21 10:27:56;;;;;;;;;;;;;;;;;;5114273;28;20002;-64
2021/06/21 10:30:22;;;;;;;;;;;;;;;;;;5114650;28;19924;-64
2021/06/21 10:32:49;;;;;;;;;;;;;;;;;;5118410;28;19927;-64
2021/06/21 10:35:17;;;;;;;;;;;;;;;;;;5121936;28;19962;-64
2021/06/21 10:37:44;;;;;;;;;;;;;;;;;;5120987;28;20015;-64
2021/06/21 10:40:13;;;;;;;;;;;;;;;;;;5115012;28;19949;-64
2021/06/21 10:42:40;;;;;;;;;;;;;;;;;;5115251;28;19936;-65
2021/06/21 10:45:07;;;;;;;;;;;;;;;;;;5120969;28;19930;-63
2021/06/21 10:47:34;;;;;;;;;;;;;;;;;;5121343;28;19934;-65
2021/06/21 10:50:01;;;;;;;;;;;;;;;;;;5120891;28;19961;-64
2021/06/21 10:52:28;;;;;;;;;;;;;;;;;;5119093;28;19927;-64
2021/06/21 10:54:55;;;;;;;;;;;;;;;;;;5113676;28;19967;-63
2021/06/21 10:57:22;;;;;;;;;;;;;;;;;;5113744;28;20014;-65
2021/06/21 10:59:49;;;;;;;;;;;;;;;;;;5113658;28;19923;-64
2021/06/21 11:02:16;;;;;;;;;;;;;;;;;;5112998;28;19931;-64
2021/06/21 11:04:43;;;;;;;;;;;;;;;;;;5113034;28;19930;-64
2021/06/21 11:07:10;;;;;;;;;;;;;;;;;;5113050;28;19928;-64
2021/06/21 11:09:37;;;;;;;;;;;;;;;;;;5112919;28;19924;-64
2021/06/21 11:12:04;;;;;;;;;;;;;;;;;;5113186;28;19928;-64
2021/06/21 11:14:31;;;;;;;;;;;;;;;;;;5113179;28;19923;-64
2021/06/21 11:16:58;;;;;;;;;;;;;;;;;;5112837;28;20348;-64
2021/06/21 11:19:25;;;;;;;;;;;;;;;;;;5112541;28;19924;-65
2021/06/21 11:21:53;;;;;;;;;;;;;;;;;;5113272;28;19931;-64
2021/06/21 11:24:20;;;;;;;;;;;;;;;;;;5108049;28;19934;-65
2021/06/21 11:26:47;;;;;;;;;;;;;;;;;;5092959;28;19924;-64
2021/06/21 11:29:14;;;;;;;;;;;;;;;;;;5091789;28;19924;-64
2021/06/21 11:31:41;;;;;;;;;;;;;;;;;;5092574;28;20410;-64
2021/06/21 11:34:08;;;;;;;;;;;;;;;;;;5092346;28;19932;-65
2021/06/21 11:36:35;;;;;;;;;;;;;;;;;;5092831;28;19924;-64
2021/06/21 11:39:02;;;;;;;;;;;;;;;;;;5092246;28;19930;-64
2021/06/21 11:41:29;;;;;;;;;;;;;;;;;;5091852;28;19924;-64
2021/06/21 11:43:56;;;;;;;;;;;;;;;;;;5092006;28;19969;-64
2021/06/21 11:46:23;;;;;;;;;;;;;;;;;;5092194;28;19924;-64
2021/06/21 11:48:50;;;;;;;;;;;;;;;;;;5092474;28;20426;-64
2021/06/21 11:51:17;;;;;;;;;;;;;;;;;;5091822;28;19923;-64
2021/06/21 11:53:44;;;;;;;;;;;;;;;;;;5091843;28;19924;-64
2021/06/21 11:56:11;;;;;;;;;;;;;;;;;;5092700;28;19928;-64
2021/06/21 11:58:38;;;;;;;;;;;;;;;;;;5092148;28;19959;-64
2021/06/21 12:01:05;;;;;;;;;;;;;;;;;;5092484;28;20015;-64
2021/06/21 12:03:32;;;;;;;;;;;;;;;;;;5092312;28;19934;-64
2021/06/21 12:06:00;;;;;;;;;;;;;;;;;;5092564;28;20001;-64
2021/06/21 12:08:27;;;;;;;;;;;;;;;;;;5107720;28;19924;-63
2021/06/21 12:10:54;;;;;;;;;;;;;;;;;;5112012;28;19930;-63
2021/06/21 12:13:21;;;;;;;;;;;;;;;;;;5112072;28;20409;-64
2021/06/21 12:15:48;;;;;;;;;;;;;;;;;;5112344;28;20008;-64
2021/06/21 12:18:15;;;;;;;;;;;;;;;;;;5111914;28;19930;-64
2021/06/21 12:20:42;;;;;;;;;;;;;;;;;;5111860;28;20299;-64
2021/06/21 12:23:09;;;;;;;;;;;;;;;;;;5111887;28;20015;-64
2021/06/21 12:25:36;;;;;;;;;;;;;;;;;;5097787;28;19924;-64
2021/06/21 12:28:03;;;;;;;;;;;;;;;;;;5092242;28;20295;-64
2021/06/21 12:30:30;;;;;;;;;;;;;;;;;;5091401;28;19924;-64
2021/06/21 12:32:57;;;;;;;;;;;;;;;;;;5092507;28;19930;-64
2021/06/21 12:35:24;;;;;;;;;;;;;;;;;;5091600;28;19928;-64
2021/06/21 12:37:51;;;;;;;;;;;;;;;;;;5091999;28;19930;-64
2021/06/21 12:40:20;;;;;;;;;;;;;;;;;;5091580;28;19983;-65
2021/06/21 12:42:47;;;;;;;;;;;;;;;;;;5091229;28;19924;-64
2021/06/21 12:45:14;;;;;;;;;;;;;;;;;;5092444;28;19978;-64
2021/06/21 12:47:41;;;;;;;;;;;;;;;;;;5091317;28;19924;-65
2021/06/21 12:50:08;;;;;;;;;;;;;;;;;;5090945;28;19934;-65
2021/06/21 12:52:35;;;;;;;;;;;;;;;;;;5091155;28;19924;-64
2021/06/21 12:55:10;;;;;;;;;;;;;;;;;;5091206;28;20026;-65
2021/06/21 12:57:37;;;;;;;;;;;;;;;;;;5091251;28;20017;-64
2021/06/21 13:00:04;;;;;;;;;;;;;;;;;;5090989;28;19924;-65
2021/06/21 13:02:31;;;;;;;;;;;;;;;;;;5091824;28;20565;-66
2021/06/21 13:04:58;;;;;;;;;;;;;;;;;;5091141;28;20018;-64
2021/06/21 13:07:26;;;;;;;;;;;;;;;;;;5101185;28;19937;-64
2021/06/21 13:09:55;;;;;;;;;;;;;;;;;;5114977;28;19927;-65
2021/06/21 13:12:22;;;;;;;;;;;;;;;;;;5115360;28;19979;-64
2021/06/21 13:14:49;;;;;;;;;;;;;;;;;;5115390;28;20014;-67
2021/06/21 13:17:16;;;;;;;;;;;;;;;;;;5115501;28;20019;-64
2021/06/21 13:19:43;;;;;;;;;;;;;;;;;;5114888;28;19924;-65
2021/06/21 13:22:10;;;;;;;;;;;;;;;;;;5114925;28;20327;-65
2021/06/21 13:24:37;;;;;;;;;;;;;;;;;;5108141;28;19924;-65
2021/06/21 13:27:04;;;;;;;;;;;;;;;;;;5094814;28;20027;-65
2021/06/21 13:29:31;;;;;;;;;;;;;;;;;;5094482;28;19930;-65
2021/06/21 13:31:58;;;;;;;;;;;;;;;;;;5094708;28;20355;-65
2021/06/21 13:34:25;;;;;;;;;;;;;;;;;;5094386;28;20391;-65
2021/06/21 13:36:52;;;;;;;;;;;;;;;;;;5094214;28;19946;-65
2021/06/21 13:39:19;;;;;;;;;;;;;;;;;;5094106;28;20310;-65
2021/06/21 13:41:46;;;;;;;;;;;;;;;;;;5094540;28;19930;-65
2021/06/21 13:44:13;;;;;;;;;;;;;;;;;;5094105;28;19931;-65
2021/06/21 13:46:40;;;;;;;;;;;;;;;;;;5094816;28;20515;-65
2021/06/21 13:49:08;;;;;;;;;;;;;;;;;;5094019;28;19930;-64
2021/06/21 13:51:36;;;;;;;;;;;;;;;;;;5093928;28;19924;-64
2021/06/21 13:54:03;;;;;;;;;;;;;;;;;;5094111;28;19985;-64
2021/06/21 13:56:32;;;;;;;;;;;;;;;;;;5093832;28;19935;-64
2021/06/21 13:58:59;;;;;;;;;;;;;;;;;;5093935;28;20011;-64
2021/06/21 14:01:26;;;;;;;;;;;;;;;;;;5093553;28;19924;-65
2021/06/21 14:03:53;;;;;;;;;;;;;;;;;;5093512;28;20011;-65
2021/06/21 14:06:20;;;;;;;;;;;;;;;;;;5093861;28;19924;-65
2021/06/21 14:08:47;;;;;;;;;;;;;;;;;;5112504;28;19985;-65
2021/06/21 14:11:14;;;;;;;;;;;;;;;;;;5113932;28;19924;-65
2021/06/21 14:13:41;;;;;;;;;;;;;;;;;;5114042;28;19924;-65
2021/06/21 14:16:08;;;;;;;;;;;;;;;;;;5114038;28;19928;-65
2021/06/21 14:18:35;;;;;;;;;;;;;;;;;;5113939;28;19930;-65
2021/06/21 14:21:02;;;;;;;;;;;;;;;;;;5119093;28;20443;-64
2021/06/21 14:23:29;;;;;;;;;;;;;;;;;;5118641;28;19946;-64
2021/06/21 14:25:56;;;;;;;;;;;;;;;;;;5098894;28;19967;-65
2021/06/21 14:28:23;;;;;;;;;;;;;;;;;;5093416;28;19931;-65
2021/06/21 14:30:50;;;;;;;;;;;;;;;;;;5092759;28;19928;-65
2021/06/21 14:33:17;;;;;;;;;;;;;;;;;;5092963;28;19923;-65
2021/06/21 14:35:44;;;;;;;;;;;;;;;;;;5093381;28;19975;-64
2021/06/21 14:38:11;;;;;;;;;;;;;;;;;;5093373;28;19967;-64
2021/06/21 14:40:40;;;;;;;;;;;;;;;;;;5093079;28;19924;-64
2021/06/21 14:43:07;;;;;;;;;;;;;;;;;;5093184;28;21268;-64
2021/06/21 14:45:34;;;;;;;;;;;;;;;;;;5093019;28;19924;-64
2021/06/21 14:48:01;;;;;;;;;;;;;;;;;;5093556;28;20303;-65
2021/06/21 14:50:28;;;;;;;;;;;;;;;;;;5092821;28;20027;-64
2021/06/21 14:52:55;;;;;;;;;;;;;;;;;;5092871;28;20349;-64
2021/06/21 14:55:24;;;;;;;;;;;;;;;;;;5092891;28;19960;-64
2021/06/21 14:57:51;;;;;;;;;;;;;;;;;;5092826;28;19924;-64
2021/06/21 15:00:18;;;;;;;;;;;;;;;;;;5092252;28;19930;-64
2021/06/21 15:02:45;;;;;;;;;;;;;;;;;;5092484;28;20303;-64
2021/06/21 15:05:12;;;;;;;;;;;;;;;;;;5092862;28;19924;-64
2021/06/21 15:07:41;;;;;;;;;;;;;;;;;;5101436;28;19927;-64
2021/06/21 15:10:08;;;;;;;;;;;;;;;;;;5112730;28;19981;-64
2021/06/21 15:12:35;;;;;;;;;;;;;;;;;;5112502;28;19923;-64
2021/06/21 15:15:02;;;;;;;;;;;;;;;;;;5112731;28;20371;-64
2021/06/21 15:17:29;;;;;;;;;;;;;;;;;;5112753;28;19924;-65
2021/06/21 15:19:56;;;;;;;;;;;;;;;;;;5112621;28;19923;-65
2021/06/21 15:22:23;;;;;;;;;;;;;;;;;;5112717;28;19931;-65
2021/06/21 15:24:50;;;;;;;;;;;;;;;;;;5105559;28;19932;-64
2021/06/21 15:27:17;;;;;;;;;;;;;;;;;;5092372;28;20384;-64
2021/06/21 15:29:44;;;;;;;;;;;;;;;;;;5091193;28;19931;-64
2021/06/21 15:32:11;;;;;;;;;;;;;;;;;;5092449;28;19982;-65
2021/06/21 15:34:42;;;;;;;;;;;;;;;;;;5092218;28;20420;-65
2021/06/21 15:37:09;;;;;;;;;;;;;;;;;;5092359;28;20054;-64
2021/06/21 15:39:36;;;;;;;;;;;;;;;;;;5091661;28;19924;-64
2021/06/21 15:42:03;;;;;;;;;;;;;;;;;;5092043;28;20299;-65
2021/06/21 15:44:30;;;;;;;;;;;;;;;;;;5092161;28;19924;-64
2021/06/21 15:46:57;;;;;;;;;;;;;;;;;;5092245;28;19931;-64
2021/06/21 15:49:24;;;;;;;;;;;;;;;;;;5091710;28;20010;-65
2021/06/21 15:51:52;;;;;;;;;;;;;;;;;;5091942;28;19928;-65
2021/06/21 15:54:19;;;;;;;;;;;;;;;;;;5091875;28;19924;-65
2021/06/21 15:56:46;;;;;;;;;;;;;;;;;;5092124;28;20427;-65
2021/06/21 15:59:13;;;;;;;;;;;;;;;;;;5091753;28;19939;-65
2021/06/21 16:01:40;;;;;;;;;;;;;;;;;;5091947;28;19925;-65
2021/06/21 16:04:07;;;;;;;;;;;;;;;;;;5091687;28;20344;-64
2021/06/21 16:06:35;;;;;;;;;;;;;;;;;;5091903;28;20470;-64
2021/06/21 16:09:02;;;;;;;;;;;;;;;;;;5112245;28;20310;-64
2021/06/21 16:11:29;;;;;;;;;;;;;;;;;;5112092;28;19963;-64
2021/06/21 16:13:56;;;;;;;;;;;;;;;;;;5112084;28;20360;-64
2021/06/21 16:16:23;;;;;;;;;;;;;;;;;;5112315;28;19934;-64
2021/06/21 16:18:50;;;;;;;;;;;;;;;;;;5112120;28;19923;-64
2021/06/21 16:21:18;;;;;;;;;;;;;;;;;;5111255;28;20406;-64
2021/06/21 16:23:45;;;;;;;;;;;;;;;;;;5111641;28;20375;-65
2021/06/21 16:26:12;;;;;;;;;;;;;;;;;;5090396;28;19924;-65
2021/06/21 16:28:39;;;;;;;;;;;;;;;;;;5091604;28;20297;-65
2021/06/21 16:31:06;;;;;;;;;;;;;;;;;;5088291;28;19935;-65
2021/06/21 16:33:33;;;;;;;;;;;;;;;;;;5091296;28;19924;-65
2021/06/21 16:36:02;;;;;;;;;;;;;;;;;;5091599;28;19946;-65
2021/06/21 16:38:29;;;;;;;;;;;;;;;;;;5092023;28;19931;-64
2021/06/21 16:40:56;;;;;;;;;;;;;;;;;;5093315;28;19923;-65
2021/06/21 16:43:23;;;;;;;;;;;;;;;;;;5096166;28;20397;-66
2021/06/21 16:45:50;;;;;;;;;;;;;;;;;;5096202;28;19931;-65